sensor_id;sensor_type;location;lat;lon;timestamp;pressure;altitude;pressure_sealevel;temperature;humidity
34197;BME280;36594;45.192;5.722;2022-09-27T05:22:45;98305.70;;;20.38;50.79
34197;BME280;36594;45.192;5.722;2022-09-27T05:25:34;98305.91;;;20.89;50.33
34197;BME280;36594;45.192;5.722;2022-09-27T05:28:24;98306.73;;;21.76;49.28
34197;BME280;36594;45.192;5.722;2022-09-27T05:31:13;98308.77;;;22.44;47.82
34197;BME280;36594;45.192;5.722;2022-09-27T05:34:03;98309.44;;;22.98;46.63
34197;BME280;36594;45.192;5.722;2022-09-27T05:36:55;98308.56;;;23.42;45.54
34197;BME280;36594;45.192;5.722;2022-09-27T05:39:44;98302.66;;;23.77;44.65
34197;BME280;36594;45.192;5.722;2022-09-27T05:42:33;98298.58;;;24.05;43.80
34197;BME280;36594;45.192;5.722;2022-09-27T05:45:23;98291.50;;;24.32;43.24
34197;BME280;36594;45.192;5.722;2022-09-27T05:48:14;98288.73;;;24.49;42.68
34197;BME280;36594;45.192;5.722;2022-09-27T05:51:06;98290.91;;;24.67;42.16
34197;BME280;36594;45.192;5.722;2022-09-27T05:53:56;98296.13;;;24.84;41.74
34197;BME280;36594;45.192;5.722;2022-09-27T05:56:47;98284.84;;;24.91;41.50
34197;BME280;36594;45.192;5.722;2022-09-27T05:59:37;98298.55;;;25.06;41.18
34197;BME280;36594;45.192;5.722;2022-09-27T06:02:32;98299.33;;;25.14;40.87
34197;BME280;36594;45.192;5.722;2022-09-27T06:05:39;98302.89;;;25.22;40.64
34197;BME280;36594;45.192;5.722;2022-09-27T06:08:46;98307.00;;;25.27;40.36
34197;BME280;36594;45.192;5.722;2022-09-27T06:11:39;98300.92;;;25.30;40.14
34197;BME280;36594;45.192;5.722;2022-09-27T06:14:30;98307.53;;;25.34;39.93
34197;BME280;36594;45.192;5.722;2022-09-27T06:17:22;98309.69;;;25.37;39.77
34197;BME280;36594;45.192;5.722;2022-09-27T06:20:11;98305.84;;;25.38;39.56
34197;BME280;36594;45.192;5.722;2022-09-27T06:23:08;98309.44;;;25.46;39.33
34197;BME280;36594;45.192;5.722;2022-09-27T17:16:02;98448.67;;;20.25;49.99
34197;BME280;36594;45.192;5.722;2022-09-27T17:18:51;98449.84;;;20.60;49.62
34197;BME280;36594;45.192;5.722;2022-09-27T17:21:40;98447.87;;;21.41;48.26
34197;BME280;36594;45.192;5.722;2022-09-27T17:24:30;98452.04;;;22.09;47.10
34197;BME280;36594;45.192;5.722;2022-09-27T17:27:19;98446.89;;;22.63;46.01
34197;BME280;36594;45.192;5.722;2022-09-27T17:30:08;98436.05;;;23.10;45.18
34197;BME280;36594;45.192;5.722;2022-09-27T17:32:56;98440.70;;;23.49;44.48
34197;BME280;36594;45.192;5.722;2022-09-27T17:35:46;98436.48;;;23.78;43.76
34197;BME280;36594;45.192;5.722;2022-09-27T17:38:35;98437.09;;;24.00;43.23
34197;BME280;36594;45.192;5.722;2022-09-27T17:41:24;98438.55;;;24.20;42.64
34197;BME280;36594;45.192;5.722;2022-09-27T17:44:14;98443.02;;;24.36;42.26
34197;BME280;36594;45.192;5.722;2022-09-27T17:47:03;98442.47;;;24.47;41.74
34197;BME280;36594;45.192;5.722;2022-09-27T17:50:10;98435.36;;;24.63;41.48
34197;BME280;36594;45.192;5.722;2022-09-27T17:53:14;98449.65;;;24.76;41.28
34197;BME280;36594;45.192;5.722;2022-09-27T17:56:02;98459.28;;;24.86;41.04
34197;BME280;36594;45.192;5.722;2022-09-27T17:58:53;98459.84;;;24.98;40.79
34197;BME280;36594;45.192;5.722;2022-09-27T18:01:44;98447.19;;;25.07;40.52
34197;BME280;36594;45.192;5.722;2022-09-27T18:04:34;98449.94;;;25.14;40.25
34197;BME280;36594;45.192;5.722;2022-09-27T18:07:22;98454.06;;;25.22;40.03
34197;BME280;36594;45.192;5.722;2022-09-27T18:10:12;98451.85;;;25.29;39.85
34197;BME280;36594;45.192;5.722;2022-09-27T18:13:02;98452.68;;;25.32;39.70
34197;BME280;36594;45.192;5.722;2022-09-27T18:15:55;98452.64;;;25.37;39.56
34197;BME280;36594;45.192;5.722;2022-09-27T18:18:47;98471.63;;;25.41;39.45
34197;BME280;36594;45.192;5.722;2022-09-27T18:21:36;98465.59;;;25.44;39.38
34197;BME280;36594;45.192;5.722;2022-09-27T18:24:25;98466.70;;;25.48;39.26
34197;BME280;36594;45.192;5.722;2022-09-27T18:27:14;98468.61;;;25.55;39.06
34197;BME280;36594;45.192;5.722;2022-09-27T18:30:06;98476.57;;;25.57;38.96
34197;BME280;36594;45.192;5.722;2022-09-27T18:32:55;98483.73;;;25.58;38.80
34197;BME280;36594;45.192;5.722;2022-09-27T18:35:43;98484.82;;;25.59;38.79
34197;BME280;36594;45.192;5.722;2022-09-27T18:38:32;98482.61;;;25.61;38.71
34197;BME280;36594;45.192;5.722;2022-09-27T18:41:22;98479.57;;;25.63;38.60
34197;BME280;36594;45.192;5.722;2022-09-27T18:44:12;98481.23;;;25.64;38.40
34197;BME280;36594;45.192;5.722;2022-09-27T18:47:01;98479.86;;;25.64;38.47
34197;BME280;36594;45.192;5.722;2022-09-27T18:49:49;98478.73;;;25.67;38.46
34197;BME280;36594;45.192;5.722;2022-09-27T18:52:37;98477.64;;;25.68;38.42
34197;BME280;36594;45.192;5.722;2022-09-27T18:55:26;98474.60;;;25.70;38.34
34197;BME280;36594;45.192;5.722;2022-09-27T18:58:15;98482.84;;;25.72;38.28
